sensor_id;sensor_type;location;lat;lon;timestamp;pressure;altitude;pressure_sealevel;temperature;humidity
51313;BME280;37397;53.226;10.400;2023-03-31T00:01:38;99877.41;;;12.74;68.27
51313;BME280;37397;53.226;10.400;2023-03-31T00:04:09;99878.97;;;12.75;68.24
51313;BME280;37397;53.226;10.400;2023-03-31T00:06:40;99876.63;;;12.74;68.09
51313;BME280;37397;53.226;10.400;2023-03-31T00:09:12;99874.28;;;12.72;68.20
51313;BME280;37397;53.226;10.400;2023-03-31T00:11:39;99882.88;;;12.72;68.17
51313;BME280;37397;53.226;10.400;2023-03-31T00:14:06;99885.22;;;12.68;68.33
51313;BME280;37397;53.226;10.400;2023-03-31T00:16:35;99880.28;;;12.69;68.38
51313;BME280;37397;53.226;10.400;2023-03-31T00:19:02;99877.16;;;12.67;68.35
51313;BME280;37397;53.226;10.400;2023-03-31T00:21:29;99875.59;;;12.66;68.27
51313;BME280;37397;53.226;10.400;2023-03-31T00:24:04;99871.44;;;12.61;68.04
51313;BME280;37397;53.226;10.400;2023-03-31T00:26:33;99871.69;;;12.63;68.34
51313;BME280;37397;53.226;10.400;2023-03-31T00:29:00;99872.72;;;12.60;68.24
51313;BME280;37397;53.226;10.400;2023-03-31T00:31:27;99875.31;;;12.58;68.13
51313;BME280;37397;53.226;10.400;2023-03-31T00:33:54;99868.31;;;12.59;68.15
51313;BME280;37397;53.226;10.400;2023-03-31T00:36:21;99859.72;;;12.59;68.39
51313;BME280;37397;53.226;10.400;2023-03-31T00:38:54;99860.25;;;12.57;68.20
51313;BME280;37397;53.226;10.400;2023-03-31T00:41:22;99854.00;;;12.53;68.38
51313;BME280;37397;53.226;10.400;2023-03-31T00:44:14;99860.47;;;12.54;68.20
51313;BME280;37397;53.226;10.400;2023-03-31T00:47:09;99857.63;;;12.54;68.35
51313;BME280;37397;53.226;10.400;2023-03-31T00:49:48;99854.50;;;12.52;68.24
51313;BME280;37397;53.226;10.400;2023-03-31T00:52:26;99843.84;;;12.47;68.35
51313;BME280;37397;53.226;10.400;2023-03-31T00:55:02;99846.69;;;12.47;68.37
51313;BME280;37397;53.226;10.400;2023-03-31T00:57:31;99845.13;;;12.46;68.04
51313;BME280;37397;53.226;10.400;2023-03-31T01:00:07;99841.75;;;12.42;68.27
51313;BME280;37397;53.226;10.400;2023-03-31T01:02:42;99840.19;;;12.40;68.28
51313;BME280;37397;53.226;10.400;2023-03-31T01:05:19;99835.22;;;12.41;68.32
51313;BME280;37397;53.226;10.400;2023-03-31T01:07:48;99835.22;;;12.41;68.30
51313;BME280;37397;53.226;10.400;2023-03-31T01:10:16;99822.50;;;12.36;68.29
51313;BME280;37397;53.226;10.400;2023-03-31T01:12:46;99826.91;;;12.37;68.30
51313;BME280;37397;53.226;10.400;2023-03-31T01:15:14;99818.34;;;12.37;68.21
51313;BME280;37397;53.226;10.400;2023-03-31T01:17:41;99818.09;;;12.35;68.29
51313;BME280;37397;53.226;10.400;2023-03-31T01:20:23;99816.25;;;12.32;68.25
51313;BME280;37397;53.226;10.400;2023-03-31T01:29:10;99796.47;;;12.23;68.29
51313;BME280;37397;53.226;10.400;2023-03-31T01:32:06;99795.19;;;12.24;68.42
51313;BME280;37397;53.226;10.400;2023-03-31T01:45:57;99786.84;;;12.15;68.62
51313;BME280;37397;53.226;10.400;2023-03-31T01:48:43;99782.16;;;12.12;68.50
51313;BME280;37397;53.226;10.400;2023-03-31T01:51:23;99771.75;;;12.09;68.73
51313;BME280;37397;53.226;10.400;2023-03-31T01:54:02;99773.06;;;12.08;68.56
51313;BME280;37397;53.226;10.400;2023-03-31T01:56:37;99767.63;;;12.10;68.60
51313;BME280;37397;53.226;10.400;2023-03-31T02:02:37;99753.28;;;12.04;68.47
51313;BME280;37397;53.226;10.400;2023-03-31T02:05:11;99754.59;;;12.03;68.73
51313;BME280;37397;53.226;10.400;2023-03-31T02:07:46;99749.94;;;12.00;68.67
51313;BME280;37397;53.226;10.400;2023-03-31T02:10:14;99747.84;;;12.00;68.63
51313;BME280;37397;53.226;10.400;2023-03-31T02:12:42;99743.44;;;11.99;68.94
51313;BME280;37397;53.226;10.400;2023-03-31T02:15:14;99737.94;;;11.96;68.61
51313;BME280;37397;53.226;10.400;2023-03-31T02:17:45;99737.19;;;11.95;68.76
51313;BME280;37397;53.226;10.400;2023-03-31T02:20:17;99730.19;;;11.96;68.59
51313;BME280;37397;53.226;10.400;2023-03-31T02:22:51;99734.31;;;11.95;68.98
51313;BME280;37397;53.226;10.400;2023-03-31T02:25:22;99720.78;;;11.90;68.72
51313;BME280;37397;53.226;10.400;2023-03-31T02:28:04;99720.78;;;11.90;68.60
51313;BME280;37397;53.226;10.400;2023-03-31T02:31:05;99718.44;;;11.89;68.62
51313;BME280;37397;53.226;10.400;2023-03-31T02:33:33;99715.56;;;11.89;68.70
51313;BME280;37397;53.226;10.400;2023-03-31T02:36:00;99716.88;;;11.88;69.02
51313;BME280;37397;53.226;10.400;2023-03-31T02:38:30;99710.13;;;11.85;68.86
51313;BME280;37397;53.226;10.400;2023-03-31T02:40:59;99711.66;;;11.86;68.89
51313;BME280;37397;53.226;10.400;2023-03-31T02:43:25;99702.59;;;11.82;68.77
51313;BME280;37397;53.226;10.400;2023-03-31T02:45:52;99707.50;;;11.81;68.82
51313;BME280;37397;53.226;10.400;2023-03-31T02:48:23;99702.81;;;11.78;68.82
51313;BME280;37397;53.226;10.400;2023-03-31T02:53:55;99680.22;;;11.75;68.57
51313;BME280;37397;53.226;10.400;2023-03-31T02:56:46;99688.28;;;11.76;68.59
51313;BME280;37397;53.226;10.400;2023-03-31T02:59:33;99678.13;;;11.70;68.69
51313;BME280;37397;53.226;10.400;2023-03-31T03:02:12;99674.00;;;11.71;68.77
51313;BME280;37397;53.226;10.400;2023-03-31T03:05:00;99673.19;;;11.70;68.95
51313;BME280;37397;53.226;10.400;2023-03-31T03:10:54;99670.34;;;11.64;69.00
51313;BME280;37397;53.226;10.400;2023-03-31T03:16:21;99670.59;;;11.61;68.93
51313;BME280;37397;53.226;10.400;2023-03-31T03:19:00;99672.41;;;11.58;69.01
51313;BME280;37397;53.226;10.400;2023-03-31T03:21:27;99669.03;;;11.60;69.01
51313;BME280;37397;53.226;10.400;2023-03-31T03:23:54;99668.25;;;11.59;69.27
51313;BME280;37397;53.226;10.400;2023-03-31T03:26:21;99665.91;;;11.58;69.10
51313;BME280;37397;53.226;10.400;2023-03-31T03:28:53;99658.63;;;11.57;69.12
51313;BME280;37397;53.226;10.400;2023-03-31T03:31:21;99652.66;;;11.55;69.29
51313;BME280;37397;53.226;10.400;2023-03-31T03:33:49;99645.91;;;11.52;69.35
51313;BME280;37397;53.226;10.400;2023-03-31T03:36:16;99653.69;;;11.52;69.19
51313;BME280;37397;53.226;10.400;2023-03-31T03:38:43;99658.91;;;11.53;69.15
51313;BME280;37397;53.226;10.400;2023-03-31T03:41:10;99655.75;;;11.51;69.21
51313;BME280;37397;53.226;10.400;2023-03-31T03:43:36;99642.53;;;11.48;69.28
51313;BME280;37397;53.226;10.400;2023-03-31T03:46:03;99657.06;;;11.50;69.46
51313;BME280;37397;53.226;10.400;2023-03-31T03:48:30;99638.09;;;11.47;69.42
51313;BME280;37397;53.226;10.400;2023-03-31T03:51:00;99645.38;;;11.48;69.56
51313;BME280;37397;53.226;10.400;2023-03-31T03:53:27;99632.38;;;11.47;69.69
51313;BME280;37397;53.226;10.400;2023-03-31T03:55:54;99638.88;;;11.47;69.85
51313;BME280;37397;53.226;10.400;2023-03-31T03:58:20;99632.38;;;11.47;69.99
51313;BME280;37397;53.226;10.400;2023-03-31T04:00:47;99629.53;;;11.47;69.81
51313;BME280;37397;53.226;10.400;2023-03-31T04:03:13;99630.06;;;11.45;70.09
51313;BME280;37397;53.226;10.400;2023-03-31T04:05:40;99623.56;;;11.45;69.79
51313;BME280;37397;53.226;10.400;2023-03-31T04:08:07;99622.75;;;11.44;69.99
51313;BME280;37397;53.226;10.400;2023-03-31T04:10:34;99620.97;;;11.47;70.11
51313;BME280;37397;53.226;10.400;2023-03-31T04:13:01;99616.03;;;11.47;70.10
51313;BME280;37397;53.226;10.400;2023-03-31T04:15:28;99602.25;;;11.46;69.98
51313;BME280;37397;53.226;10.400;2023-03-31T04:17:55;99605.41;;;11.48;70.21
51313;BME280;37397;53.226;10.400;2023-03-31T04:20:23;99593.97;;;11.48;70.23
51313;BME280;37397;53.226;10.400;2023-03-31T04:22:53;99598.13;;;11.47;70.23
51313;BME280;37397;53.226;10.400;2023-03-31T04:25:20;99591.88;;;11.48;70.12
51313;BME280;37397;53.226;10.400;2023-03-31T04:27:51;99583.31;;;11.48;70.12
51313;BME280;37397;53.226;10.400;2023-03-31T04:30:25;99577.59;;;11.48;70.37
51313;BME280;37397;53.226;10.400;2023-03-31T04:33:00;99578.38;;;11.49;70.22
51313;BME280;37397;53.226;10.400;2023-03-31T04:35:29;99577.59;;;11.48;70.30
51313;BME280;37397;53.226;10.400;2023-03-31T04:38:08;99571.38;;;11.50;70.40
51313;BME280;37397;53.226;10.400;2023-03-31T04:40:35;99572.66;;;11.49;70.47
51313;BME280;37397;53.226;10.400;2023-03-31T04:43:01;99562.03;;;11.49;70.29
51313;BME280;37397;53.226;10.400;2023-03-31T04:45:28;99548.25;;;11.48;70.39
51313;BME280;37397;53.226;10.400;2023-03-31T04:47:54;99551.38;;;11.50;70.18
51313;BME280;37397;53.226;10.400;2023-03-31T04:50:21;99547.19;;;11.51;70.30
51313;BME280;37397;53.226;10.400;2023-03-31T04:52:47;99546.94;;;11.49;70.20
51313;BME280;37397;53.226;10.400;2023-03-31T04:55:14;99547.19;;;11.51;70.31
51313;BME280;37397;53.226;10.400;2023-03-31T04:57:41;99539.44;;;11.52;70.30
51313;BME280;37397;53.226;10.400;2023-03-31T05:00:08;99536.06;;;11.53;70.31
51313;BME280;37397;53.226;10.400;2023-03-31T05:02:36;99526.69;;;11.53;70.34
51313;BME280;37397;53.226;10.400;2023-03-31T05:05:04;99525.16;;;11.52;70.25
51313;BME280;37397;53.226;10.400;2023-03-31T05:07:31;99516.06;;;11.53;70.24
51313;BME280;37397;53.226;10.400;2023-03-31T05:09:57;99521.75;;;11.53;70.34
51313;BME280;37397;53.226;10.400;2023-03-31T05:12:24;99513.19;;;11.53;70.06
51313;BME280;37397;53.226;10.400;2023-03-31T05:14:51;99521.75;;;11.53;70.39
51313;BME280;37397;53.226;10.400;2023-03-31T05:17:17;99508.00;;;11.52;70.19
51313;BME280;37397;53.226;10.400;2023-03-31T05:19:44;99506.16;;;11.54;70.23
51313;BME280;37397;53.226;10.400;2023-03-31T05:22:10;99505.41;;;11.54;70.41
51313;BME280;37397;53.226;10.400;2023-03-31T05:24:37;99498.91;;;11.53;70.25
51313;BME280;37397;53.226;10.400;2023-03-31T05:27:03;99493.97;;;11.54;70.25
51313;BME280;37397;53.226;10.400;2023-03-31T05:29:30;99490.34;;;11.53;70.14
51313;BME280;37397;53.226;10.400;2023-03-31T05:31:56;99490.06;;;11.51;70.33
51313;BME280;37397;53.226;10.400;2023-03-31T05:34:23;99487.47;;;11.53;70.09
51313;BME280;37397;53.226;10.400;2023-03-31T05:36:49;99480.97;;;11.53;70.13
51313;BME280;37397;53.226;10.400;2023-03-31T05:39:19;99485.91;;;11.52;70.10
51313;BME280;37397;53.226;10.400;2023-03-31T05:41:45;99472.16;;;11.50;70.13
51313;BME280;37397;53.226;10.400;2023-03-31T05:44:12;99465.66;;;11.50;69.86
51313;BME280;37397;53.226;10.400;2023-03-31T05:46:38;99467.22;;;11.51;70.01
51313;BME280;37397;53.226;10.400;2023-03-31T05:49:05;99474.50;;;11.52;70.03
51313;BME280;37397;53.226;10.400;2023-03-31T05:51:32;99465.66;;;11.50;70.04
51313;BME280;37397;53.226;10.400;2023-03-31T05:53:59;99461.50;;;11.51;69.93
51313;BME280;37397;53.226;10.400;2023-03-31T05:56:26;99464.09;;;11.49;70.01
51313;BME280;37397;53.226;10.400;2023-03-31T05:58:52;99472.16;;;11.50;70.00
51313;BME280;37397;53.226;10.400;2023-03-31T06:01:19;99464.34;;;11.51;70.01
51313;BME280;37397;53.226;10.400;2023-03-31T06:03:48;99468.00;;;11.52;70.20
51313;BME280;37397;53.226;10.400;2023-03-31T06:06:15;99453.47;;;11.49;70.16
51313;BME280;37397;53.226;10.400;2023-03-31T06:08:43;99455.00;;;11.50;70.25
51313;BME280;37397;53.226;10.400;2023-03-31T06:11:12;99453.72;;;11.52;70.16
51313;BME280;37397;53.226;10.400;2023-03-31T06:13:40;99451.63;;;11.52;70.12
51313;BME280;37397;53.226;10.400;2023-03-31T06:16:08;99449.56;;;11.53;70.16
51313;BME280;37397;53.226;10.400;2023-03-31T06:18:36;99451.63;;;11.52;70.40
51313;BME280;37397;53.226;10.400;2023-03-31T06:21:02;99445.16;;;11.52;70.44
51313;BME280;37397;53.226;10.400;2023-03-31T06:23:30;99444.34;;;11.51;70.54
51313;BME280;37397;53.226;10.400;2023-03-31T06:26:01;99442.53;;;11.54;70.41
51313;BME280;37397;53.226;10.400;2023-03-31T06:28:28;99447.75;;;11.55;70.63
51313;BME280;37397;53.226;10.400;2023-03-31T06:31:07;99438.66;;;11.51;70.53
51313;BME280;37397;53.226;10.400;2023-03-31T06:33:34;99438.91;;;11.53;70.44
51313;BME280;37397;53.226;10.400;2023-03-31T06:36:01;99439.41;;;11.57;70.57
51313;BME280;37397;53.226;10.400;2023-03-31T06:38:30;99438.91;;;11.59;70.65
51313;BME280;37397;53.226;10.400;2023-03-31T06:40:57;99442.28;;;11.57;70.70
51313;BME280;37397;53.226;10.400;2023-03-31T06:43:24;99446.94;;;11.60;70.66
51313;BME280;37397;53.226;10.400;2023-03-31T06:45:54;99439.94;;;11.61;70.68
51313;BME280;37397;53.226;10.400;2023-03-31T06:48:23;99449.28;;;11.62;70.77
51313;BME280;37397;53.226;10.400;2023-03-31T06:50:52;99440.94;;;11.64;70.76
51313;BME280;37397;53.226;10.400;2023-03-31T06:53:19;99441.75;;;11.64;70.76
51313;BME280;37397;53.226;10.400;2023-03-31T06:55:47;99434.47;;;11.63;70.73
51313;BME280;37397;53.226;10.400;2023-03-31T06:58:13;99437.56;;;11.65;70.84
51313;BME280;37397;53.226;10.400;2023-03-31T07:00:40;99431.84;;;11.65;70.75
51313;BME280;37397;53.226;10.400;2023-03-31T07:03:06;99443.81;;;11.70;70.68
51313;BME280;37397;53.226;10.400;2023-03-31T07:05:34;99433.94;;;11.71;70.82
51313;BME280;37397;53.226;10.400;2023-03-31T07:08:01;99425.63;;;11.73;70.77
51313;BME280;37397;53.226;10.400;2023-03-31T07:10:29;99424.34;;;11.74;70.90
51313;BME280;37397;53.226;10.400;2023-03-31T07:12:56;99418.63;;;11.74;70.76
51313;BME280;37397;53.226;10.400;2023-03-31T07:15:23;99420.41;;;11.77;70.81
51313;BME280;37397;53.226;10.400;2023-03-31T07:17:50;99416.00;;;11.76;70.74
51313;BME280;37397;53.226;10.400;2023-03-31T07:20:19;99419.34;;;11.80;70.65
51313;BME280;37397;53.226;10.400;2023-03-31T07:22:47;99409.47;;;11.81;70.58
51313;BME280;37397;53.226;10.400;2023-03-31T07:25:16;99411.06;;;11.82;70.82
51313;BME280;37397;53.226;10.400;2023-03-31T07:27:43;99411.06;;;11.82;70.76
51313;BME280;37397;53.226;10.400;2023-03-31T07:30:12;99414.16;;;11.84;70.76
51313;BME280;37397;53.226;10.400;2023-03-31T07:32:39;99412.06;;;11.84;70.76
51313;BME280;37397;53.226;10.400;2023-03-31T07:35:08;99407.38;;;11.87;70.75
51313;BME280;37397;53.226;10.400;2023-03-31T07:37:36;99405.31;;;11.88;70.71
51313;BME280;37397;53.226;10.400;2023-03-31T07:40:03;99408.94;;;11.88;70.70
51313;BME280;37397;53.226;10.400;2023-03-31T07:42:32;99407.38;;;11.87;70.69
51313;BME280;37397;53.226;10.400;2023-03-31T07:44:58;99406.34;;;11.90;70.77
51313;BME280;37397;53.226;10.400;2023-03-31T07:47:25;99402.16;;;11.91;70.57
51313;BME280;37397;53.226;10.400;2023-03-31T07:49:51;99392.31;;;11.92;70.64
51313;BME280;37397;53.226;10.400;2023-03-31T07:52:18;99391.03;;;11.93;70.56
51313;BME280;37397;53.226;10.400;2023-03-31T07:54:45;99380.88;;;11.92;70.85
51313;BME280;37397;53.226;10.400;2023-03-31T07:57:12;99374.13;;;11.95;70.56
51313;BME280;37397;53.226;10.400;2023-03-31T07:59:39;99374.88;;;11.96;70.60
51313;BME280;37397;53.226;10.400;2023-03-31T08:02:06;99369.97;;;11.96;70.63
51313;BME280;37397;53.226;10.400;2023-03-31T08:04:32;99367.34;;;11.98;70.69
51313;BME280;37397;53.226;10.400;2023-03-31T08:06:59;99371.78;;;11.99;70.73
51313;BME280;37397;53.226;10.400;2023-03-31T08:09:26;99367.59;;;12.00;70.73
51313;BME280;37397;53.226;10.400;2023-03-31T08:11:52;99364.72;;;12.00;70.79
51313;BME280;37397;53.226;10.400;2023-03-31T08:14:19;99356.41;;;12.02;70.93
51313;BME280;37397;53.226;10.400;2023-03-31T08:16:59;99356.41;;;12.02;70.84
51313;BME280;37397;53.226;10.400;2023-03-31T08:19:26;99353.81;;;12.04;71.04
51313;BME280;37397;53.226;10.400;2023-03-31T08:21:53;99353.81;;;12.04;70.94
51313;BME280;37397;53.226;10.400;2023-03-31T08:24:19;99347.56;;;12.06;70.84
51313;BME280;37397;53.226;10.400;2023-03-31T08:26:46;99355.63;;;12.08;70.84
51313;BME280;37397;53.226;10.400;2023-03-31T08:29:12;99351.19;;;12.07;70.79
51313;BME280;37397;53.226;10.400;2023-03-31T08:31:39;99348.84;;;12.11;70.94
51313;BME280;37397;53.226;10.400;2023-03-31T08:34:06;99348.84;;;12.11;70.90
51313;BME280;37397;53.226;10.400;2023-03-31T08:36:32;99354.81;;;12.13;70.82
51313;BME280;37397;53.226;10.400;2023-03-31T08:39:00;99348.28;;;12.12;70.98
51313;BME280;37397;53.226;10.400;2023-03-31T08:43:55;99332.69;;;12.13;70.97
51313;BME280;37397;53.226;10.400;2023-03-31T08:46:26;99335.03;;;12.15;71.10
51313;BME280;37397;53.226;10.400;2023-03-31T08:48:55;99329.53;;;12.17;71.05
51313;BME280;37397;53.226;10.400;2023-03-31T08:51:26;99328.25;;;12.18;71.05
51313;BME280;37397;53.226;10.400;2023-03-31T08:54:03;99324.63;;;12.17;71.04
51313;BME280;37397;53.226;10.400;2023-03-31T08:56:34;99305.13;;;12.16;70.99
51313;BME280;37397;53.226;10.400;2023-03-31T08:59:05;99318.38;;;12.19;71.13
51313;BME280;37397;53.226;10.400;2023-03-31T09:01:42;99310.31;;;12.17;70.95
51313;BME280;37397;53.226;10.400;2023-03-31T09:09:37;99291.59;;;12.22;70.94
51313;BME280;37397;53.226;10.400;2023-03-31T09:12:10;99296.78;;;12.24;71.12
51313;BME280;37397;53.226;10.400;2023-03-31T09:14:47;99298.31;;;12.25;71.18
51313;BME280;37397;53.226;10.400;2023-03-31T09:17:30;99291.81;;;12.24;71.26
51313;BME280;37397;53.226;10.400;2023-03-31T09:20:04;99289.19;;;12.26;71.21
51313;BME280;37397;53.226;10.400;2023-03-31T09:22:40;99289.19;;;12.26;71.25
51313;BME280;37397;53.226;10.400;2023-03-31T09:25:13;99285.81;;;12.28;71.26
51313;BME280;37397;53.226;10.400;2023-03-31T09:27:42;99277.75;;;12.26;71.33
51313;BME280;37397;53.226;10.400;2023-03-31T09:30:15;99277.47;;;12.30;71.37
51313;BME280;37397;53.226;10.400;2023-03-31T09:32:44;99272.53;;;12.30;71.54
51313;BME280;37397;53.226;10.400;2023-03-31T09:35:17;99275.63;;;12.32;71.36
51313;BME280;37397;53.226;10.400;2023-03-31T09:37:44;99273.81;;;12.35;71.35
51313;BME280;37397;53.226;10.400;2023-03-31T09:40:15;99257.41;;;12.35;71.53
51313;BME280;37397;53.226;10.400;2023-03-31T09:42:43;99258.97;;;12.36;71.41
51313;BME280;37397;53.226;10.400;2023-03-31T09:45:15;99260.50;;;12.37;71.43
51313;BME280;37397;53.226;10.400;2023-03-31T09:47:50;99265.69;;;12.39;71.39
51313;BME280;37397;53.226;10.400;2023-03-31T09:50:17;99259.44;;;12.40;71.61
51313;BME280;37397;53.226;10.400;2023-03-31T09:52:57;99256.81;;;12.43;71.74
51313;BME280;37397;53.226;10.400;2023-03-31T09:55:42;99242.28;;;12.40;71.87
51313;BME280;37397;53.226;10.400;2023-03-31T09:58:16;99238.34;;;12.44;71.91
51313;BME280;37397;53.226;10.400;2023-03-31T10:01:03;99235.50;;;12.44;71.80
51313;BME280;37397;53.226;10.400;2023-03-31T10:03:32;99232.09;;;12.45;71.78
51313;BME280;37397;53.226;10.400;2023-03-31T10:06:09;99232.34;;;12.47;71.91
51313;BME280;37397;53.226;10.400;2023-03-31T10:08:56;99227.16;;;12.46;71.87
51313;BME280;37397;53.226;10.400;2023-03-31T10:11:24;99216.97;;;12.50;71.97
51313;BME280;37397;53.226;10.400;2023-03-31T10:14:00;99218.75;;;12.53;71.85
51313;BME280;37397;53.226;10.400;2023-03-31T10:16:44;99213.81;;;12.54;71.95
51313;BME280;37397;53.226;10.400;2023-03-31T10:19:20;99206.78;;;12.55;71.74
51313;BME280;37397;53.226;10.400;2023-03-31T10:21:55;99213.53;;;12.57;71.97
51313;BME280;37397;53.226;10.400;2023-03-31T10:24:22;99213.75;;;12.59;71.94
51313;BME280;37397;53.226;10.400;2023-03-31T10:26:52;99211.13;;;12.62;72.28
51313;BME280;37397;53.226;10.400;2023-03-31T10:29:30;99210.59;;;12.63;72.34
51313;BME280;37397;53.226;10.400;2023-03-31T10:32:08;99212.91;;;12.65;72.24
51313;BME280;37397;53.226;10.400;2023-03-31T10:34:41;99208.47;;;12.69;72.45
51313;BME280;37397;53.226;10.400;2023-03-31T10:37:13;99212.34;;;12.72;72.49
51313;BME280;37397;53.226;10.400;2023-03-31T10:39:42;99200.34;;;12.73;72.34
51313;BME280;37397;53.226;10.400;2023-03-31T10:42:08;99203.47;;;12.75;72.49
51313;BME280;37397;53.226;10.400;2023-03-31T10:44:37;99196.16;;;12.74;72.23
51313;BME280;37397;53.226;10.400;2023-03-31T10:49:41;99189.59;;;12.80;72.39
51313;BME280;37397;53.226;10.400;2023-03-31T10:52:23;99180.78;;;12.77;72.13
51313;BME280;37397;53.226;10.400;2023-03-31T10:54:58;99167.09;;;12.70;72.10
51313;BME280;37397;53.226;10.400;2023-03-31T11:00:07;99173.75;;;12.79;72.02
51313;BME280;37397;53.226;10.400;2023-03-31T11:03:03;99168.81;;;12.79;72.09
51313;BME280;37397;53.226;10.400;2023-03-31T11:05:51;99177.94;;;12.77;71.79
51313;BME280;37397;53.226;10.400;2023-03-31T11:08:35;99176.84;;;12.81;71.79
51313;BME280;37397;53.226;10.400;2023-03-31T11:11:31;99176.09;;;12.80;71.90
51313;BME280;37397;53.226;10.400;2023-03-31T11:19:58;99164.09;;;12.82;71.88
51313;BME280;37397;53.226;10.400;2023-03-31T11:22:38;99158.38;;;12.82;71.82
51313;BME280;37397;53.226;10.400;2023-03-31T11:25:19;99152.16;;;12.77;71.73
51313;BME280;37397;53.226;10.400;2023-03-31T11:30:30;99158.59;;;12.84;71.92
51313;BME280;37397;53.226;10.400;2023-03-31T11:33:17;99149.53;;;12.80;71.74
51313;BME280;37397;53.226;10.400;2023-03-31T11:36:09;99143.28;;;12.81;71.58
51313;BME280;37397;53.226;10.400;2023-03-31T11:41:32;99139.63;;;12.81;71.77
51313;BME280;37397;53.226;10.400;2023-03-31T11:44:04;99140.66;;;12.83;71.74
51313;BME280;37397;53.226;10.400;2023-03-31T11:49:17;99132.63;;;12.82;71.66
51313;BME280;37397;53.226;10.400;2023-03-31T11:55:13;99129.97;;;12.84;71.87
51313;BME280;37397;53.226;10.400;2023-03-31T11:57:24;99123.78;;;12.80;71.77
51313;BME280;37397;53.226;10.400;2023-03-31T12:00:05;99121.16;;;12.82;71.77
51313;BME280;37397;53.226;10.400;2023-03-31T12:05:33;99110.78;;;12.79;71.81
51313;BME280;37397;53.226;10.400;2023-03-31T12:08:10;99115.19;;;12.80;71.84
51313;BME280;37397;53.226;10.400;2023-03-31T12:10:50;99111.56;;;12.79;71.92
51313;BME280;37397;53.226;10.400;2023-03-31T12:13:33;99114.09;;;12.83;71.72
51313;BME280;37397;53.226;10.400;2023-03-31T12:16:07;99107.06;;;12.84;71.95
51313;BME280;37397;53.226;10.400;2023-03-31T12:18:41;99106.78;;;12.87;71.91
51313;BME280;37397;53.226;10.400;2023-03-31T12:21:10;99099.75;;;12.88;71.94
51313;BME280;37397;53.226;10.400;2023-03-31T12:23:41;99104.94;;;12.90;72.03
51313;BME280;37397;53.226;10.400;2023-03-31T12:26:16;99092.94;;;12.91;72.06
51313;BME280;37397;53.226;10.400;2023-03-31T12:28:56;99092.94;;;12.91;71.95
51313;BME280;37397;53.226;10.400;2023-03-31T12:31:24;99093.94;;;12.94;72.04
51313;BME280;37397;53.226;10.400;2023-03-31T12:33:58;99083.28;;;12.94;72.08
51313;BME280;37397;53.226;10.400;2023-03-31T12:36:37;99085.59;;;12.96;72.16
51313;BME280;37397;53.226;10.400;2023-03-31T12:42:02;99076.47;;;12.98;72.26
51313;BME280;37397;53.226;10.400;2023-03-31T12:50:05;99073.50;;;13.03;72.43
51313;BME280;37397;53.226;10.400;2023-03-31T12:53:03;99070.09;;;13.05;72.66
51313;BME280;37397;53.226;10.400;2023-03-31T12:55:44;99064.59;;;13.07;72.52
51313;BME280;37397;53.226;10.400;2023-03-31T13:01:04;99061.19;;;13.08;72.56
51313;BME280;37397;53.226;10.400;2023-03-31T13:03:47;99059.88;;;13.09;72.63
51313;BME280;37397;53.226;10.400;2023-03-31T13:14:10;99055.31;;;13.20;72.44
51313;BME280;37397;53.226;10.400;2023-03-31T13:16:38;99043.63;;;13.18;72.62
51313;BME280;37397;53.226;10.400;2023-03-31T13:19:05;99039.69;;;13.21;72.47
51313;BME280;37397;53.226;10.400;2023-03-31T13:21:52;99044.88;;;13.22;72.46
51313;BME280;37397;53.226;10.400;2023-03-31T13:24:23;99043.78;;;13.25;72.43
51313;BME280;37397;53.226;10.400;2023-03-31T13:26:51;99047.63;;;13.28;72.63
51313;BME280;37397;53.226;10.400;2023-03-31T13:29:25;99034.09;;;13.28;72.59
51313;BME280;37397;53.226;10.400;2023-03-31T13:34:34;99038.50;;;13.29;72.25
51313;BME280;37397;53.226;10.400;2023-03-31T13:42:31;99039.75;;;13.34;72.26
51313;BME280;37397;53.226;10.400;2023-03-31T13:49:14;99031.69;;;13.32;72.27
51313;BME280;37397;53.226;10.400;2023-03-31T13:51:57;99029.84;;;13.35;72.50
51313;BME280;37397;53.226;10.400;2023-03-31T13:54:37;99020.72;;;13.37;72.35
51313;BME280;37397;53.226;10.400;2023-03-31T13:57:43;99022.25;;;13.38;72.42
51313;BME280;37397;53.226;10.400;2023-03-31T14:00:29;99016.75;;;13.40;72.29
51313;BME280;37397;53.226;10.400;2023-03-31T14:03:18;99011.78;;;13.40;72.32
51313;BME280;37397;53.226;10.400;2023-03-31T14:08:52;99011.72;;;13.46;72.47
51313;BME280;37397;53.226;10.400;2023-03-31T14:11:29;99014.81;;;13.48;72.41
51313;BME280;37397;53.226;10.400;2023-03-31T14:14:14;99008.75;;;13.52;72.45
51313;BME280;37397;53.226;10.400;2023-03-31T14:16:48;99006.09;;;13.54;72.35
51313;BME280;37397;53.226;10.400;2023-03-31T14:25:04;99000.06;;;13.57;72.38
51313;BME280;37397;53.226;10.400;2023-03-31T14:30:48;98994.97;;;13.63;72.32
51313;BME280;37397;53.226;10.400;2023-03-31T14:38:51;98990.47;;;13.68;72.23
51313;BME280;37397;53.226;10.400;2023-03-31T14:41:19;98992.03;;;13.69;72.19
51313;BME280;37397;53.226;10.400;2023-03-31T14:43:48;98988.84;;;13.73;72.30
51313;BME280;37397;53.226;10.400;2023-03-31T14:46:20;98988.06;;;13.72;72.15
51313;BME280;37397;53.226;10.400;2023-03-31T14:48:49;98982.34;;;13.72;72.10
51313;BME280;37397;53.226;10.400;2023-03-31T14:51:22;98984.31;;;13.77;72.09
51313;BME280;37397;53.226;10.400;2023-03-31T14:54:00;98989.28;;;13.77;71.85
51313;BME280;37397;53.226;10.400;2023-03-31T14:56:33;98983.00;;;13.78;71.88
51313;BME280;37397;53.226;10.400;2023-03-31T14:59:05;98984.78;;;13.81;72.07
51313;BME280;37397;53.226;10.400;2023-03-31T15:01:34;98984.78;;;13.81;72.04
51313;BME280;37397;53.226;10.400;2023-03-31T15:04:06;98985.22;;;13.85;71.92
51313;BME280;37397;53.226;10.400;2023-03-31T15:06:35;98976.41;;;13.83;71.99